Briefing drone pour Magny-cours

Rechercher une autre localisation

Conditions de vol :


Nous sommes le : Jeudi 21 octobre 2021
Il est 18:59 UTC (20:59 LT)

Lever de soleil : 05:47 UTC (07:47 LT)
Coucher de soleil : 17:16 UTC (19:16 LT)

Météo

L'essentiel des conditions de vol

VIGILANCE MÉTÉO FRANCE - Nièvre (58)
Pas de vigilances particulieres
METAR de LFQG
LFQG 211800Z AUTO 24009KT 210V280 9999 SCT038 BKN047 BKN058 14/09 Q1016

Date d'émission: 21/10/2021
Heure d'émission: 18:00 UTC
Vent: 240° (variable du 210° au 280°) pour 9 KT (17 km/h)
Visibilité horizontale: > 10 km
Plafond :
- Nuages épars à 3800ft (1158m)
- Nuages morcelés à 4700ft (1433m)
- Nuages morcelés à 5800ft (1768m)
Température: 14 °C
Point de rosée: 9 °C
Humidité: 72%
Pression (QNH): 1016 hPa
Prévision 24h pour Nevers (7 km)
Vent : 358° pour 3 KT (9 km/h)
Temperature Maxi: 12 °C
Temperature Min: 12 °C
Humidité : 46%
Condition : Ciel dégagé



Warning: count(): Parameter must be an array or an object that implements Countable in /homepages/6/d509196549/htdocs/droneoxygene/briefing.php on line 743
WEBCAM POUR MAGNY-COURS

Réglementation

Voler en sécurité

CARTES AERONAUTIQUE 1/500.000
CARTES VAC (LFQG)
SUP AIP




Chargement des AIP...
NOTAM (MAGNY-COURS + Terrain à proximité / FIR )




Chargement des NOTAMS...
CONTACT PREFECTURE 58


Avertissement : Les données mises à disposition sont indicatives. Oxygène Drone ne pourra être tenu responsable de dégâts causés aux biens et aux personnes.